sensor_id;sensor_type;location;lat;lon;timestamp;temperature;humidity
66013;DHT22;52783;50.502;8.190;2023-04-15T00:00:23;7.30;99.90
66013;DHT22;52783;50.502;8.190;2023-04-15T00:02:50;7.40;99.90
66013;DHT22;52783;50.502;8.190;2023-04-15T00:05:15;7.40;99.90
66013;DHT22;52783;50.502;8.190;2023-04-15T00:07:41;7.40;99.90
66013;DHT22;52783;50.502;8.190;2023-04-15T00:10:07;7.50;99.90
66013;DHT22;52783;50.502;8.190;2023-04-15T00:12:33;7.50;99.90
66013;DHT22;52783;50.502;8.190;2023-04-15T00:14:59;7.50;99.90
66013;DHT22;52783;50.502;8.190;2023-04-15T00:17:24;7.50;99.90
66013;DHT22;52783;50.502;8.190;2023-04-15T00:19:50;7.50;99.90
66013;DHT22;52783;50.502;8.190;2023-04-15T00:22:15;7.50;99.90
66013;DHT22;52783;50.502;8.190;2023-04-15T00:24:42;7.50;99.90
66013;DHT22;52783;50.502;8.190;2023-04-15T00:27:08;7.50;99.90
66013;DHT22;52783;50.502;8.190;2023-04-15T00:29:33;7.40;99.90
66013;DHT22;52783;50.502;8.190;2023-04-15T00:31:59;7.40;99.90
66013;DHT22;52783;50.502;8.190;2023-04-15T00:34:26;7.40;99.90
66013;DHT22;52783;50.502;8.190;2023-04-15T00:36:52;7.40;99.90
66013;DHT22;52783;50.502;8.190;2023-04-15T00:39:17;7.30;99.90
66013;DHT22;52783;50.502;8.190;2023-04-15T00:41:43;7.40;99.90
66013;DHT22;52783;50.502;8.190;2023-04-15T00:44:09;7.30;99.90
66013;DHT22;52783;50.502;8.190;2023-04-15T00:46:36;7.30;99.90
66013;DHT22;52783;50.502;8.190;2023-04-15T00:49:05;7.30;99.90
66013;DHT22;52783;50.502;8.190;2023-04-15T00:51:32;7.30;99.90
66013;DHT22;52783;50.502;8.190;2023-04-15T00:54:01;7.20;99.90
66013;DHT22;52783;50.502;8.190;2023-04-15T00:56:27;7.20;99.90
66013;DHT22;52783;50.502;8.190;2023-04-15T00:58:53;7.10;99.90
66013;DHT22;52783;50.502;8.190;2023-04-15T01:01:23;7.10;99.90
66013;DHT22;52783;50.502;8.190;2023-04-15T01:03:50;7.00;99.90
66013;DHT22;52783;50.502;8.190;2023-04-15T01:06:16;7.00;99.90
66013;DHT22;52783;50.502;8.190;2023-04-15T01:08:42;7.00;99.90
66013;DHT22;52783;50.502;8.190;2023-04-15T01:11:08;6.90;99.90
66013;DHT22;52783;50.502;8.190;2023-04-15T01:13:35;6.90;99.90
66013;DHT22;52783;50.502;8.190;2023-04-15T01:16:01;6.90;99.90
66013;DHT22;52783;50.502;8.190;2023-04-15T01:18:27;6.90;99.90
66013;DHT22;52783;50.502;8.190;2023-04-15T01:20:53;6.90;99.90
66013;DHT22;52783;50.502;8.190;2023-04-15T01:23:20;6.90;99.90
66013;DHT22;52783;50.502;8.190;2023-04-15T01:25:46;6.80;99.90
66013;DHT22;52783;50.502;8.190;2023-04-15T01:28:13;6.80;99.90
66013;DHT22;52783;50.502;8.190;2023-04-15T01:30:39;6.70;99.90
66013;DHT22;52783;50.502;8.190;2023-04-15T01:33:04;6.80;99.90
66013;DHT22;52783;50.502;8.190;2023-04-15T01:35:30;6.70;99.90
66013;DHT22;52783;50.502;8.190;2023-04-15T01:38:03;6.70;99.90
66013;DHT22;52783;50.502;8.190;2023-04-15T01:40:30;6.70;99.90
66013;DHT22;52783;50.502;8.190;2023-04-15T01:42:56;6.70;99.90
66013;DHT22;52783;50.502;8.190;2023-04-15T01:45:22;6.70;99.90
66013;DHT22;52783;50.502;8.190;2023-04-15T01:47:47;6.60;99.90
66013;DHT22;52783;50.502;8.190;2023-04-15T01:50:13;6.70;99.90
66013;DHT22;52783;50.502;8.190;2023-04-15T01:52:39;6.60;99.90
66013;DHT22;52783;50.502;8.190;2023-04-15T01:55:05;6.60;99.90
66013;DHT22;52783;50.502;8.190;2023-04-15T01:57:32;6.60;99.90
66013;DHT22;52783;50.502;8.190;2023-04-15T01:59:57;6.60;99.90
66013;DHT22;52783;50.502;8.190;2023-04-15T02:02:23;6.60;99.90
66013;DHT22;52783;50.502;8.190;2023-04-15T02:04:49;6.60;99.90
66013;DHT22;52783;50.502;8.190;2023-04-15T02:07:14;6.50;99.90
66013;DHT22;52783;50.502;8.190;2023-04-15T02:09:40;6.40;99.90
66013;DHT22;52783;50.502;8.190;2023-04-15T02:12:05;6.30;99.90
66013;DHT22;52783;50.502;8.190;2023-04-15T02:14:31;6.20;99.90
66013;DHT22;52783;50.502;8.190;2023-04-15T02:16:56;6.10;99.90
66013;DHT22;52783;50.502;8.190;2023-04-15T02:19:22;6.00;99.90
66013;DHT22;52783;50.502;8.190;2023-04-15T02:21:48;5.90;99.90
66013;DHT22;52783;50.502;8.190;2023-04-15T02:24:13;5.80;99.90
66013;DHT22;52783;50.502;8.190;2023-04-15T02:26:38;5.80;99.90
66013;DHT22;52783;50.502;8.190;2023-04-15T02:29:04;5.70;99.90
66013;DHT22;52783;50.502;8.190;2023-04-15T02:31:30;5.70;99.90
66013;DHT22;52783;50.502;8.190;2023-04-15T02:33:58;5.60;99.90
66013;DHT22;52783;50.502;8.190;2023-04-15T02:36:24;5.60;99.90
66013;DHT22;52783;50.502;8.190;2023-04-15T02:38:51;5.50;99.90
66013;DHT22;52783;50.502;8.190;2023-04-15T02:41:16;5.50;99.90
66013;DHT22;52783;50.502;8.190;2023-04-15T02:43:42;5.40;99.90
66013;DHT22;52783;50.502;8.190;2023-04-15T02:46:08;5.30;99.90
66013;DHT22;52783;50.502;8.190;2023-04-15T02:48:37;5.30;99.90
66013;DHT22;52783;50.502;8.190;2023-04-15T02:51:19;5.30;99.90
66013;DHT22;52783;50.502;8.190;2023-04-15T02:53:46;5.20;99.90
66013;DHT22;52783;50.502;8.190;2023-04-15T02:56:11;5.10;99.90
66013;DHT22;52783;50.502;8.190;2023-04-15T02:58:39;4.70;99.90
66013;DHT22;52783;50.502;8.190;2023-04-15T03:01:05;4.70;99.90
66013;DHT22;52783;50.502;8.190;2023-04-15T03:03:31;4.80;99.90
66013;DHT22;52783;50.502;8.190;2023-04-15T03:05:57;4.80;99.90
66013;DHT22;52783;50.502;8.190;2023-04-15T03:08:23;4.80;99.90
66013;DHT22;52783;50.502;8.190;2023-04-15T03:10:51;4.90;99.90
66013;DHT22;52783;50.502;8.190;2023-04-15T03:13:18;4.80;99.90
66013;DHT22;52783;50.502;8.190;2023-04-15T03:15:48;4.90;99.90
66013;DHT22;52783;50.502;8.190;2023-04-15T03:18:13;4.80;99.90
66013;DHT22;52783;50.502;8.190;2023-04-15T03:20:39;4.80;99.90
66013;DHT22;52783;50.502;8.190;2023-04-15T03:23:04;4.80;99.90
66013;DHT22;52783;50.502;8.190;2023-04-15T03:25:30;4.80;99.90
66013;DHT22;52783;50.502;8.190;2023-04-15T03:27:56;4.80;99.90
66013;DHT22;52783;50.502;8.190;2023-04-15T03:30:21;4.80;99.90
66013;DHT22;52783;50.502;8.190;2023-04-15T03:32:47;4.60;99.90
66013;DHT22;52783;50.502;8.190;2023-04-15T03:35:12;4.60;99.90
66013;DHT22;52783;50.502;8.190;2023-04-15T03:37:38;4.70;99.90
66013;DHT22;52783;50.502;8.190;2023-04-15T03:40:04;4.60;99.90
66013;DHT22;52783;50.502;8.190;2023-04-15T03:42:29;4.60;99.90
66013;DHT22;52783;50.502;8.190;2023-04-15T03:44:55;4.60;99.90
66013;DHT22;52783;50.502;8.190;2023-04-15T03:47:21;4.60;99.90
66013;DHT22;52783;50.502;8.190;2023-04-15T03:49:46;4.60;99.90
66013;DHT22;52783;50.502;8.190;2023-04-15T03:52:12;4.60;99.90
66013;DHT22;52783;50.502;8.190;2023-04-15T03:54:37;4.60;99.90
66013;DHT22;52783;50.502;8.190;2023-04-15T03:57:03;4.60;99.90
66013;DHT22;52783;50.502;8.190;2023-04-15T03:59:28;4.60;99.90
66013;DHT22;52783;50.502;8.190;2023-04-15T04:01:54;4.60;99.90
66013;DHT22;52783;50.502;8.190;2023-04-15T04:04:19;4.60;99.90
66013;DHT22;52783;50.502;8.190;2023-04-15T04:06:45;4.60;99.90
66013;DHT22;52783;50.502;8.190;2023-04-15T04:09:10;4.60;99.90
66013;DHT22;52783;50.502;8.190;2023-04-15T04:11:36;4.50;99.90
66013;DHT22;52783;50.502;8.190;2023-04-15T04:14:02;4.50;99.90
66013;DHT22;52783;50.502;8.190;2023-04-15T04:16:27;4.50;99.90
66013;DHT22;52783;50.502;8.190;2023-04-15T04:18:53;4.50;99.90
66013;DHT22;52783;50.502;8.190;2023-04-15T04:21:18;4.50;99.90
66013;DHT22;52783;50.502;8.190;2023-04-15T04:23:45;4.50;99.90
66013;DHT22;52783;50.502;8.190;2023-04-15T04:26:11;4.40;99.90
66013;DHT22;52783;50.502;8.190;2023-04-15T04:28:36;4.50;99.90
66013;DHT22;52783;50.502;8.190;2023-04-15T04:31:05;4.50;99.90
66013;DHT22;52783;50.502;8.190;2023-04-15T04:33:31;4.40;99.90
66013;DHT22;52783;50.502;8.190;2023-04-15T04:35:56;4.40;99.90
66013;DHT22;52783;50.502;8.190;2023-04-15T04:38:22;4.40;99.90
66013;DHT22;52783;50.502;8.190;2023-04-15T04:40:47;4.50;99.90
66013;DHT22;52783;50.502;8.190;2023-04-15T04:43:13;4.50;99.90
66013;DHT22;52783;50.502;8.190;2023-04-15T04:45:40;4.50;99.90
66013;DHT22;52783;50.502;8.190;2023-04-15T04:48:06;4.50;99.90
66013;DHT22;52783;50.502;8.190;2023-04-15T04:50:33;4.50;99.90
66013;DHT22;52783;50.502;8.190;2023-04-15T04:52:59;4.50;99.90
66013;DHT22;52783;50.502;8.190;2023-04-15T04:55:25;4.50;99.90
66013;DHT22;52783;50.502;8.190;2023-04-15T04:57:51;4.40;99.90
66013;DHT22;52783;50.502;8.190;2023-04-15T05:00:17;4.50;99.90
66013;DHT22;52783;50.502;8.190;2023-04-15T05:02:43;4.50;99.90
66013;DHT22;52783;50.502;8.190;2023-04-15T05:05:09;4.60;99.90
66013;DHT22;52783;50.502;8.190;2023-04-15T05:07:36;4.70;99.90
66013;DHT22;52783;50.502;8.190;2023-04-15T05:10:02;4.70;99.90
66013;DHT22;52783;50.502;8.190;2023-04-15T05:12:28;4.60;99.90
66013;DHT22;52783;50.502;8.190;2023-04-15T05:14:53;4.70;99.90
66013;DHT22;52783;50.502;8.190;2023-04-15T05:17:19;4.80;99.90
66013;DHT22;52783;50.502;8.190;2023-04-15T05:19:44;4.80;99.90
66013;DHT22;52783;50.502;8.190;2023-04-15T05:22:10;4.90;99.90
66013;DHT22;52783;50.502;8.190;2023-04-15T05:24:35;5.00;99.90
66013;DHT22;52783;50.502;8.190;2023-04-15T05:27:01;5.10;99.90
66013;DHT22;52783;50.502;8.190;2023-04-15T05:29:27;5.10;99.90
66013;DHT22;52783;50.502;8.190;2023-04-15T05:31:52;5.20;99.90
66013;DHT22;52783;50.502;8.190;2023-04-15T05:34:18;5.30;99.90
66013;DHT22;52783;50.502;8.190;2023-04-15T05:36:43;5.40;99.90
66013;DHT22;52783;50.502;8.190;2023-04-15T05:39:09;5.40;99.90
66013;DHT22;52783;50.502;8.190;2023-04-15T05:41:34;5.60;99.90
66013;DHT22;52783;50.502;8.190;2023-04-15T05:44:00;5.60;99.90
66013;DHT22;52783;50.502;8.190;2023-04-15T05:46:26;5.80;99.90
66013;DHT22;52783;50.502;8.190;2023-04-15T05:48:51;5.90;99.90
66013;DHT22;52783;50.502;8.190;2023-04-15T05:51:17;6.10;99.90
66013;DHT22;52783;50.502;8.190;2023-04-15T05:53:42;6.20;99.90
66013;DHT22;52783;50.502;8.190;2023-04-15T05:56:08;6.60;99.90
66013;DHT22;52783;50.502;8.190;2023-04-15T05:58:34;6.90;99.90
66013;DHT22;52783;50.502;8.190;2023-04-15T06:01:00;7.20;99.90
66013;DHT22;52783;50.502;8.190;2023-04-15T06:03:25;7.50;99.90
66013;DHT22;52783;50.502;8.190;2023-04-15T06:05:51;7.90;99.90
66013;DHT22;52783;50.502;8.190;2023-04-15T06:08:17;8.10;99.90
66013;DHT22;52783;50.502;8.190;2023-04-15T06:10:43;8.20;99.90
66013;DHT22;52783;50.502;8.190;2023-04-15T06:13:08;8.30;99.90
66013;DHT22;52783;50.502;8.190;2023-04-15T06:15:34;8.20;99.90
66013;DHT22;52783;50.502;8.190;2023-04-15T06:18:00;7.90;99.90
66013;DHT22;52783;50.502;8.190;2023-04-15T06:20:25;8.20;99.90
66013;DHT22;52783;50.502;8.190;2023-04-15T06:22:51;8.40;99.90
66013;DHT22;52783;50.502;8.190;2023-04-15T06:25:16;8.90;99.90
66013;DHT22;52783;50.502;8.190;2023-04-15T06:27:42;9.20;99.90
66013;DHT22;52783;50.502;8.190;2023-04-15T06:30:08;9.70;99.90
66013;DHT22;52783;50.502;8.190;2023-04-15T06:32:33;9.90;99.90
66013;DHT22;52783;50.502;8.190;2023-04-15T06:34:59;10.30;99.90
66013;DHT22;52783;50.502;8.190;2023-04-15T06:37:25;10.90;99.90
66013;DHT22;52783;50.502;8.190;2023-04-15T06:39:50;11.10;99.90
66013;DHT22;52783;50.502;8.190;2023-04-15T06:42:16;10.90;99.90
66013;DHT22;52783;50.502;8.190;2023-04-15T06:44:42;11.00;99.90
66013;DHT22;52783;50.502;8.190;2023-04-15T06:47:07;10.90;99.90
66013;DHT22;52783;50.502;8.190;2023-04-15T06:49:33;10.60;99.90
66013;DHT22;52783;50.502;8.190;2023-04-15T06:51:59;10.50;99.90
66013;DHT22;52783;50.502;8.190;2023-04-15T06:54:25;10.50;99.90
66013;DHT22;52783;50.502;8.190;2023-04-15T06:56:51;10.60;99.90
66013;DHT22;52783;50.502;8.190;2023-04-15T06:59:16;10.90;99.90
66013;DHT22;52783;50.502;8.190;2023-04-15T07:01:42;10.90;99.90
66013;DHT22;52783;50.502;8.190;2023-04-15T07:04:08;10.90;99.90
66013;DHT22;52783;50.502;8.190;2023-04-15T07:06:34;11.10;99.90
66013;DHT22;52783;50.502;8.190;2023-04-15T07:09:00;10.80;99.90
66013;DHT22;52783;50.502;8.190;2023-04-15T07:11:27;11.10;99.90
66013;DHT22;52783;50.502;8.190;2023-04-15T07:13:53;11.50;99.90
66013;DHT22;52783;50.502;8.190;2023-04-15T07:16:18;11.70;99.90
66013;DHT22;52783;50.502;8.190;2023-04-15T07:18:44;11.50;99.90
66013;DHT22;52783;50.502;8.190;2023-04-15T07:21:09;11.90;99.90
66013;DHT22;52783;50.502;8.190;2023-04-15T07:23:35;11.50;99.90
66013;DHT22;52783;50.502;8.190;2023-04-15T07:26:02;12.00;99.90
66013;DHT22;52783;50.502;8.190;2023-04-15T07:28:27;12.50;99.90
66013;DHT22;52783;50.502;8.190;2023-04-15T07:30:53;12.70;99.90
66013;DHT22;52783;50.502;8.190;2023-04-15T07:33:19;12.90;99.90
66013;DHT22;52783;50.502;8.190;2023-04-15T07:35:45;13.40;99.90
66013;DHT22;52783;50.502;8.190;2023-04-15T07:38:11;13.30;99.90
66013;DHT22;52783;50.502;8.190;2023-04-15T07:40:38;13.00;99.90
66013;DHT22;52783;50.502;8.190;2023-04-15T07:43:04;13.60;99.90
66013;DHT22;52783;50.502;8.190;2023-04-15T07:45:30;13.50;99.90
66013;DHT22;52783;50.502;8.190;2023-04-15T07:47:55;13.40;99.90
66013;DHT22;52783;50.502;8.190;2023-04-15T07:50:21;12.90;99.90
66013;DHT22;52783;50.502;8.190;2023-04-15T07:52:50;13.10;99.90
66013;DHT22;52783;50.502;8.190;2023-04-15T07:55:16;13.20;99.90
66013;DHT22;52783;50.502;8.190;2023-04-15T07:57:44;12.90;99.90
66013;DHT22;52783;50.502;8.190;2023-04-15T08:00:12;12.80;99.90
66013;DHT22;52783;50.502;8.190;2023-04-15T08:02:37;13.10;99.90
66013;DHT22;52783;50.502;8.190;2023-04-15T08:05:03;13.40;99.90
66013;DHT22;52783;50.502;8.190;2023-04-15T08:07:29;13.50;99.90
66013;DHT22;52783;50.502;8.190;2023-04-15T08:09:55;12.70;99.90
66013;DHT22;52783;50.502;8.190;2023-04-15T08:12:21;13.10;99.90
66013;DHT22;52783;50.502;8.190;2023-04-15T08:14:46;12.60;99.90
66013;DHT22;52783;50.502;8.190;2023-04-15T08:17:12;12.90;99.90
66013;DHT22;52783;50.502;8.190;2023-04-15T08:19:37;12.90;99.90
66013;DHT22;52783;50.502;8.190;2023-04-15T08:22:03;12.80;99.90
66013;DHT22;52783;50.502;8.190;2023-04-15T08:24:30;12.90;99.90
66013;DHT22;52783;50.502;8.190;2023-04-15T08:26:56;12.90;99.90
66013;DHT22;52783;50.502;8.190;2023-04-15T08:29:22;13.10;99.90
66013;DHT22;52783;50.502;8.190;2023-04-15T08:31:47;13.10;99.90
66013;DHT22;52783;50.502;8.190;2023-04-15T08:34:13;12.50;99.90
66013;DHT22;52783;50.502;8.190;2023-04-15T08:36:39;12.20;99.90
66013;DHT22;52783;50.502;8.190;2023-04-15T08:39:04;12.20;99.90
66013;DHT22;52783;50.502;8.190;2023-04-15T08:41:39;11.90;99.90
66013;DHT22;52783;50.502;8.190;2023-04-15T08:44:05;11.70;99.90
66013;DHT22;52783;50.502;8.190;2023-04-15T08:46:31;11.60;99.90
66013;DHT22;52783;50.502;8.190;2023-04-15T08:48:59;11.60;99.90
66013;DHT22;52783;50.502;8.190;2023-04-15T08:51:25;11.50;99.90
66013;DHT22;52783;50.502;8.190;2023-04-15T08:53:52;11.40;99.90
66013;DHT22;52783;50.502;8.190;2023-04-15T08:56:18;11.40;99.90
66013;DHT22;52783;50.502;8.190;2023-04-15T08:58:45;11.40;99.90
66013;DHT22;52783;50.502;8.190;2023-04-15T09:01:11;11.50;99.90
66013;DHT22;52783;50.502;8.190;2023-04-15T09:03:38;11.60;99.90
66013;DHT22;52783;50.502;8.190;2023-04-15T09:06:05;11.80;99.90
66013;DHT22;52783;50.502;8.190;2023-04-15T09:08:31;12.00;99.90
66013;DHT22;52783;50.502;8.190;2023-04-15T09:10:58;12.00;99.90
66013;DHT22;52783;50.502;8.190;2023-04-15T09:13:24;12.00;99.90
66013;DHT22;52783;50.502;8.190;2023-04-15T09:15:50;12.00;99.90
66013;DHT22;52783;50.502;8.190;2023-04-15T09:18:30;11.70;99.90
66013;DHT22;52783;50.502;8.190;2023-04-15T09:21:02;11.80;99.90
66013;DHT22;52783;50.502;8.190;2023-04-15T09:23:29;12.10;99.90
66013;DHT22;52783;50.502;8.190;2023-04-15T09:25:56;12.30;99.90
66013;DHT22;52783;50.502;8.190;2023-04-15T09:28:25;12.40;99.90
66013;DHT22;52783;50.502;8.190;2023-04-15T09:33:23;12.30;99.90
66013;DHT22;52783;50.502;8.190;2023-04-15T09:36:01;12.30;99.90
66013;DHT22;52783;50.502;8.190;2023-04-15T09:38:27;12.10;99.90
66013;DHT22;52783;50.502;8.190;2023-04-15T09:40:53;11.90;99.90
66013;DHT22;52783;50.502;8.190;2023-04-15T09:43:19;11.70;99.90
66013;DHT22;52783;50.502;8.190;2023-04-15T09:45:50;11.60;99.90
66013;DHT22;52783;50.502;8.190;2023-04-15T09:48:18;11.70;99.90
66013;DHT22;52783;50.502;8.190;2023-04-15T09:50:47;11.70;99.90
66013;DHT22;52783;50.502;8.190;2023-04-15T09:53:21;11.70;99.90
66013;DHT22;52783;50.502;8.190;2023-04-15T09:55:50;11.40;99.90
66013;DHT22;52783;50.502;8.190;2023-04-15T09:58:17;11.30;99.90
66013;DHT22;52783;50.502;8.190;2023-04-15T10:00:44;11.10;99.90
66013;DHT22;52783;50.502;8.190;2023-04-15T10:03:11;11.10;99.90
66013;DHT22;52783;50.502;8.190;2023-04-15T10:05:38;11.30;99.90
66013;DHT22;52783;50.502;8.190;2023-04-15T10:08:03;11.20;99.90
66013;DHT22;52783;50.502;8.190;2023-04-15T10:10:29;11.10;99.90
66013;DHT22;52783;50.502;8.190;2023-04-15T10:12:55;11.10;99.90
66013;DHT22;52783;50.502;8.190;2023-04-15T10:15:22;11.40;99.90
66013;DHT22;52783;50.502;8.190;2023-04-15T10:17:49;11.40;99.90
66013;DHT22;52783;50.502;8.190;2023-04-15T10:20:16;11.30;99.90
66013;DHT22;52783;50.502;8.190;2023-04-15T10:22:44;11.20;99.90
66013;DHT22;52783;50.502;8.190;2023-04-15T10:25:11;11.50;99.90
66013;DHT22;52783;50.502;8.190;2023-04-15T10:27:38;11.60;99.90
66013;DHT22;52783;50.502;8.190;2023-04-15T10:30:05;11.40;99.90
66013;DHT22;52783;50.502;8.190;2023-04-15T10:32:31;11.40;99.90
66013;DHT22;52783;50.502;8.190;2023-04-15T10:34:57;11.40;99.90
66013;DHT22;52783;50.502;8.190;2023-04-15T10:37:36;11.60;99.90
66013;DHT22;52783;50.502;8.190;2023-04-15T10:40:25;11.60;99.90
66013;DHT22;52783;50.502;8.190;2023-04-15T10:42:54;11.50;99.90
66013;DHT22;52783;50.502;8.190;2023-04-15T10:45:21;11.10;99.90
66013;DHT22;52783;50.502;8.190;2023-04-15T10:47:51;11.00;99.90
66013;DHT22;52783;50.502;8.190;2023-04-15T10:50:19;11.10;99.90
66013;DHT22;52783;50.502;8.190;2023-04-15T10:52:44;11.20;99.90
66013;DHT22;52783;50.502;8.190;2023-04-15T10:57:38;11.50;99.90
66013;DHT22;52783;50.502;8.190;2023-04-15T11:02:40;11.60;99.90
66013;DHT22;52783;50.502;8.190;2023-04-15T11:05:06;12.10;99.90
66013;DHT22;52783;50.502;8.190;2023-04-15T11:07:55;12.10;99.90
66013;DHT22;52783;50.502;8.190;2023-04-15T11:13:01;12.00;99.90
66013;DHT22;52783;50.502;8.190;2023-04-15T11:18:11;11.70;99.90
66013;DHT22;52783;50.502;8.190;2023-04-15T11:20:38;11.50;99.90
66013;DHT22;52783;50.502;8.190;2023-04-15T11:23:04;11.50;99.90
66013;DHT22;52783;50.502;8.190;2023-04-15T11:25:32;11.60;99.90
66013;DHT22;52783;50.502;8.190;2023-04-15T11:27:59;11.40;99.90
66013;DHT22;52783;50.502;8.190;2023-04-15T11:30:26;11.40;99.90
66013;DHT22;52783;50.502;8.190;2023-04-15T11:32:57;11.30;99.90
66013;DHT22;52783;50.502;8.190;2023-04-15T11:35:33;11.40;99.90
66013;DHT22;52783;50.502;8.190;2023-04-15T11:38:07;11.20;99.90
66013;DHT22;52783;50.502;8.190;2023-04-15T11:40:33;11.20;99.90
66013;DHT22;52783;50.502;8.190;2023-04-15T11:43:26;11.40;99.90
66013;DHT22;52783;50.502;8.190;2023-04-15T11:45:56;11.20;99.90
66013;DHT22;52783;50.502;8.190;2023-04-15T11:48:31;11.20;99.90
66013;DHT22;52783;50.502;8.190;2023-04-15T11:51:01;11.10;99.90
66013;DHT22;52783;50.502;8.190;2023-04-15T11:53:40;11.00;99.90
66013;DHT22;52783;50.502;8.190;2023-04-15T11:56:08;11.00;99.90
66013;DHT22;52783;50.502;8.190;2023-04-15T11:58:35;11.10;99.90
66013;DHT22;52783;50.502;8.190;2023-04-15T12:01:05;11.00;99.90
66013;DHT22;52783;50.502;8.190;2023-04-15T12:03:47;10.80;99.90
66013;DHT22;52783;50.502;8.190;2023-04-15T12:06:22;10.70;99.90
66013;DHT22;52783;50.502;8.190;2023-04-15T12:08:52;10.50;99.90
66013;DHT22;52783;50.502;8.190;2023-04-15T12:13:58;10.40;99.90
66013;DHT22;52783;50.502;8.190;2023-04-15T12:16:27;10.40;99.90
66013;DHT22;52783;50.502;8.190;2023-04-15T12:18:54;10.30;99.90
66013;DHT22;52783;50.502;8.190;2023-04-15T12:21:24;10.10;99.90
66013;DHT22;52783;50.502;8.190;2023-04-15T12:23:53;10.00;99.90
66013;DHT22;52783;50.502;8.190;2023-04-15T12:27:16;10.10;99.90
66013;DHT22;52783;50.502;8.190;2023-04-15T12:29:35;9.90;99.90
66013;DHT22;52783;50.502;8.190;2023-04-15T12:32:09;9.80;99.90
66013;DHT22;52783;50.502;8.190;2023-04-15T12:34:57;9.80;99.90
66013;DHT22;52783;50.502;8.190;2023-04-15T12:37:22;9.50;99.90
66013;DHT22;52783;50.502;8.190;2023-04-15T12:39:49;9.50;99.90
66013;DHT22;52783;50.502;8.190;2023-04-15T12:42:15;9.40;99.90
66013;DHT22;52783;50.502;8.190;2023-04-15T12:44:41;9.40;99.90
66013;DHT22;52783;50.502;8.190;2023-04-15T12:47:08;9.50;99.90
66013;DHT22;52783;50.502;8.190;2023-04-15T12:49:34;9.60;99.90
66013;DHT22;52783;50.502;8.190;2023-04-15T12:52:00;9.70;99.90
66013;DHT22;52783;50.502;8.190;2023-04-15T12:54:27;9.60;99.90
66013;DHT22;52783;50.502;8.190;2023-04-15T12:56:53;9.50;99.90
66013;DHT22;52783;50.502;8.190;2023-04-15T12:59:19;9.50;99.90
66013;DHT22;52783;50.502;8.190;2023-04-15T13:01:46;9.50;99.90
66013;DHT22;52783;50.502;8.190;2023-04-15T13:04:12;9.40;99.90
66013;DHT22;52783;50.502;8.190;2023-04-15T13:06:37;9.40;99.90
66013;DHT22;52783;50.502;8.190;2023-04-15T13:09:03;9.30;99.90
66013;DHT22;52783;50.502;8.190;2023-04-15T13:11:30;9.30;99.90
66013;DHT22;52783;50.502;8.190;2023-04-15T13:14:05;9.50;99.90
66013;DHT22;52783;50.502;8.190;2023-04-15T13:16:31;9.40;99.90
66013;DHT22;52783;50.502;8.190;2023-04-15T13:19:01;9.50;99.90
66013;DHT22;52783;50.502;8.190;2023-04-15T13:21:27;9.50;99.90
66013;DHT22;52783;50.502;8.190;2023-04-15T13:23:53;9.40;99.90
66013;DHT22;52783;50.502;8.190;2023-04-15T13:26:19;9.20;99.90
66013;DHT22;52783;50.502;8.190;2023-04-15T13:28:45;9.10;99.90
66013;DHT22;52783;50.502;8.190;2023-04-15T13:31:10;9.20;99.90
66013;DHT22;52783;50.502;8.190;2023-04-15T13:33:36;9.10;99.90
66013;DHT22;52783;50.502;8.190;2023-04-15T13:36:02;9.30;99.90
66013;DHT22;52783;50.502;8.190;2023-04-15T13:38:27;9.10;99.90
66013;DHT22;52783;50.502;8.190;2023-04-15T13:40:53;9.20;99.90
66013;DHT22;52783;50.502;8.190;2023-04-15T13:43:18;9.30;99.90
66013;DHT22;52783;50.502;8.190;2023-04-15T13:45:45;9.40;99.90
66013;DHT22;52783;50.502;8.190;2023-04-15T13:48:11;9.30;99.90
66013;DHT22;52783;50.502;8.190;2023-04-15T13:50:37;9.40;99.90
66013;DHT22;52783;50.502;8.190;2023-04-15T13:53:02;9.30;99.90
66013;DHT22;52783;50.502;8.190;2023-04-15T13:55:28;9.20;99.90
66013;DHT22;52783;50.502;8.190;2023-04-15T13:57:53;9.20;99.90
66013;DHT22;52783;50.502;8.190;2023-04-15T14:00:19;9.30;99.90
66013;DHT22;52783;50.502;8.190;2023-04-15T14:02:44;9.30;99.90
66013;DHT22;52783;50.502;8.190;2023-04-15T14:05:10;9.20;99.90
66013;DHT22;52783;50.502;8.190;2023-04-15T14:07:36;9.20;99.90
66013;DHT22;52783;50.502;8.190;2023-04-15T14:10:02;9.40;99.90
66013;DHT22;52783;50.502;8.190;2023-04-15T14:12:27;9.30;99.90
66013;DHT22;52783;50.502;8.190;2023-04-15T14:14:53;9.10;99.90
66013;DHT22;52783;50.502;8.190;2023-04-15T14:17:18;9.20;99.90
66013;DHT22;52783;50.502;8.190;2023-04-15T14:19:44;9.20;99.90
66013;DHT22;52783;50.502;8.190;2023-04-15T14:22:09;9.10;99.90
66013;DHT22;52783;50.502;8.190;2023-04-15T14:24:35;9.10;99.90
66013;DHT22;52783;50.502;8.190;2023-04-15T14:27:01;9.20;99.90
66013;DHT22;52783;50.502;8.190;2023-04-15T14:29:27;9.30;99.90
66013;DHT22;52783;50.502;8.190;2023-04-15T14:31:52;9.40;99.90
66013;DHT22;52783;50.502;8.190;2023-04-15T14:34:19;9.40;99.90
66013;DHT22;52783;50.502;8.190;2023-04-15T14:36:46;9.50;99.90
66013;DHT22;52783;50.502;8.190;2023-04-15T14:39:13;9.50;99.90
66013;DHT22;52783;50.502;8.190;2023-04-15T14:41:38;9.60;99.90
66013;DHT22;52783;50.502;8.190;2023-04-15T14:44:04;9.60;99.90
66013;DHT22;52783;50.502;8.190;2023-04-15T14:46:29;9.50;99.90
66013;DHT22;52783;50.502;8.190;2023-04-15T14:48:55;9.60;99.90
66013;DHT22;52783;50.502;8.190;2023-04-15T14:51:22;9.70;99.90
66013;DHT22;52783;50.502;8.190;2023-04-15T14:53:47;9.60;99.90
66013;DHT22;52783;50.502;8.190;2023-04-15T14:56:13;9.40;99.90
66013;DHT22;52783;50.502;8.190;2023-04-15T14:58:38;9.40;99.90
66013;DHT22;52783;50.502;8.190;2023-04-15T15:01:04;9.30;99.90
66013;DHT22;52783;50.502;8.190;2023-04-15T15:03:30;9.30;99.90
66013;DHT22;52783;50.502;8.190;2023-04-15T15:05:55;9.30;99.90
66013;DHT22;52783;50.502;8.190;2023-04-15T15:08:22;9.30;99.90
66013;DHT22;52783;50.502;8.190;2023-04-15T15:10:47;9.20;99.90
66013;DHT22;52783;50.502;8.190;2023-04-15T15:13:13;9.20;99.90
66013;DHT22;52783;50.502;8.190;2023-04-15T15:15:38;9.30;99.90
66013;DHT22;52783;50.502;8.190;2023-04-15T15:18:05;9.10;99.90
66013;DHT22;52783;50.502;8.190;2023-04-15T15:20:30;9.40;99.90
66013;DHT22;52783;50.502;8.190;2023-04-15T15:22:57;9.30;99.90
66013;DHT22;52783;50.502;8.190;2023-04-15T15:25:23;9.20;99.90
66013;DHT22;52783;50.502;8.190;2023-04-15T15:27:48;9.20;99.90
66013;DHT22;52783;50.502;8.190;2023-04-15T15:30:14;9.00;99.90
66013;DHT22;52783;50.502;8.190;2023-04-15T15:32:40;9.00;99.90
66013;DHT22;52783;50.502;8.190;2023-04-15T15:35:06;9.00;99.90
66013;DHT22;52783;50.502;8.190;2023-04-15T15:37:32;9.00;99.90
66013;DHT22;52783;50.502;8.190;2023-04-15T15:39:58;9.00;99.90
66013;DHT22;52783;50.502;8.190;2023-04-15T15:42:23;9.00;99.90
66013;DHT22;52783;50.502;8.190;2023-04-15T15:44:49;9.10;99.90
66013;DHT22;52783;50.502;8.190;2023-04-15T15:47:20;9.00;99.90
66013;DHT22;52783;50.502;8.190;2023-04-15T15:49:46;8.90;99.90
66013;DHT22;52783;50.502;8.190;2023-04-15T15:52:11;8.90;99.90